sensor_id;sensor_type;location;lat;lon;timestamp;pressure;altitude;pressure_sealevel;temperature;humidity
38912;BME280;28444;48.056;14.408;2022-08-21T00:02:21;97575.47;;;16.94;100.00
38912;BME280;28444;48.056;14.408;2022-08-21T00:04:50;97573.19;;;16.90;100.00
38912;BME280;28444;48.056;14.408;2022-08-21T00:07:23;97570.31;;;16.88;100.00
38912;BME280;28444;48.056;14.408;2022-08-21T00:09:51;97571.66;;;16.87;100.00
38912;BME280;28444;48.056;14.408;2022-08-21T00:12:18;97563.84;;;16.83;100.00
38912;BME280;28444;48.056;14.408;2022-08-21T00:14:46;97562.78;;;16.89;100.00
38912;BME280;28444;48.056;14.408;2022-08-21T00:17:13;97555.22;;;16.89;100.00
38912;BME280;28444;48.056;14.408;2022-08-21T00:19:39;97567.81;;;16.92;100.00
38912;BME280;28444;48.056;14.408;2022-08-21T00:22:06;97560.59;;;16.87;100.00
38912;BME280;28444;48.056;14.408;2022-08-21T00:24:34;97561.53;;;16.92;100.00
38912;BME280;28444;48.056;14.408;2022-08-21T00:27:01;97557.47;;;16.93;100.00
38912;BME280;28444;48.056;14.408;2022-08-21T00:29:27;97556.25;;;16.96;100.00
38912;BME280;28444;48.056;14.408;2022-08-21T00:31:54;97567.53;;;17.00;100.00
38912;BME280;28444;48.056;14.408;2022-08-21T00:34:21;97562.38;;;16.94;100.00
38912;BME280;28444;48.056;14.408;2022-08-21T00:36:48;97553.50;;;16.96;100.00
38912;BME280;28444;48.056;14.408;2022-08-21T00:39:14;97557.69;;;16.97;100.00
38912;BME280;28444;48.056;14.408;2022-08-21T00:41:41;97554.31;;;16.98;100.00
38912;BME280;28444;48.056;14.408;2022-08-21T00:44:11;97561.28;;;16.99;100.00
38912;BME280;28444;48.056;14.408;2022-08-21T00:46:42;97557.91;;;17.01;100.00
38912;BME280;28444;48.056;14.408;2022-08-21T00:49:10;97555.78;;;16.99;100.00
38912;BME280;28444;48.056;14.408;2022-08-21T00:51:59;97560.91;;;17.05;100.00
38912;BME280;28444;48.056;14.408;2022-08-21T00:54:28;97558.25;;;17.07;100.00
38912;BME280;28444;48.056;14.408;2022-08-21T00:57:07;97559.56;;;17.06;100.00
38912;BME280;28444;48.056;14.408;2022-08-21T00:59:37;97558.13;;;17.05;100.00
38912;BME280;28444;48.056;14.408;2022-08-21T01:02:06;97558.47;;;17.11;100.00
38912;BME280;28444;48.056;14.408;2022-08-21T01:04:34;97554.59;;;17.16;100.00
38912;BME280;28444;48.056;14.408;2022-08-21T01:07:01;97558.19;;;17.19;100.00
38912;BME280;28444;48.056;14.408;2022-08-21T01:09:28;97551.75;;;17.14;100.00
38912;BME280;28444;48.056;14.408;2022-08-21T01:11:55;97554.00;;;17.18;100.00
38912;BME280;28444;48.056;14.408;2022-08-21T01:14:23;97543.66;;;17.18;100.00
38912;BME280;28444;48.056;14.408;2022-08-21T01:16:51;97546.66;;;17.22;100.00
38912;BME280;28444;48.056;14.408;2022-08-21T01:19:20;97546.75;;;17.24;100.00
38912;BME280;28444;48.056;14.408;2022-08-21T01:21:48;97540.00;;;17.27;100.00
38912;BME280;28444;48.056;14.408;2022-08-21T01:24:15;97537.66;;;17.22;100.00
38912;BME280;28444;48.056;14.408;2022-08-21T01:26:42;97540.50;;;17.24;100.00
38912;BME280;28444;48.056;14.408;2022-08-21T01:29:38;97535.09;;;17.26;100.00
38912;BME280;28444;48.056;14.408;2022-08-21T01:32:11;97533.75;;;17.27;100.00
38912;BME280;28444;48.056;14.408;2022-08-21T01:34:41;97532.34;;;17.26;100.00
38912;BME280;28444;48.056;14.408;2022-08-21T01:37:11;97538.78;;;17.30;100.00
38912;BME280;28444;48.056;14.408;2022-08-21T01:39:38;97527.03;;;17.30;100.00
38912;BME280;28444;48.056;14.408;2022-08-21T01:42:06;97537.56;;;17.33;100.00
38912;BME280;28444;48.056;14.408;2022-08-21T01:44:33;97523.75;;;17.33;100.00
38912;BME280;28444;48.056;14.408;2022-08-21T01:47:04;97528.44;;;17.31;100.00
38912;BME280;28444;48.056;14.408;2022-08-21T01:49:32;97522.72;;;17.27;100.00
38912;BME280;28444;48.056;14.408;2022-08-21T01:51:59;97517.19;;;17.27;100.00
38912;BME280;28444;48.056;14.408;2022-08-21T01:54:26;97516.47;;;17.26;100.00
38912;BME280;28444;48.056;14.408;2022-08-21T01:56:53;97522.00;;;17.26;100.00
38912;BME280;28444;48.056;14.408;2022-08-21T01:59:22;97509.41;;;17.23;100.00
38912;BME280;28444;48.056;14.408;2022-08-21T02:01:49;97519.53;;;17.19;100.00
38912;BME280;28444;48.056;14.408;2022-08-21T02:04:17;97520.13;;;17.17;100.00
38912;BME280;28444;48.056;14.408;2022-08-21T02:06:43;97515.91;;;17.16;100.00
38912;BME280;28444;48.056;14.408;2022-08-21T02:09:11;97506.22;;;17.15;100.00
38912;BME280;28444;48.056;14.408;2022-08-21T02:11:40;97509.47;;;17.12;100.00
38912;BME280;28444;48.056;14.408;2022-08-21T02:14:08;97510.31;;;17.14;100.00
38912;BME280;28444;48.056;14.408;2022-08-21T02:16:35;97505.59;;;17.17;100.00
38912;BME280;28444;48.056;14.408;2022-08-21T02:19:02;97512.44;;;17.16;100.00
38912;BME280;28444;48.056;14.408;2022-08-21T02:21:30;97500.69;;;17.15;100.00
38912;BME280;28444;48.056;14.408;2022-08-21T02:23:57;97494.31;;;17.13;100.00
38912;BME280;28444;48.056;14.408;2022-08-21T02:26:24;97493.00;;;17.14;100.00
38912;BME280;28444;48.056;14.408;2022-08-21T02:28:52;97484.09;;;17.15;100.00
38912;BME280;28444;48.056;14.408;2022-08-21T02:31:19;97488.28;;;17.16;100.00
38912;BME280;28444;48.056;14.408;2022-08-21T02:33:45;97493.22;;;17.18;100.00
38912;BME280;28444;48.056;14.408;2022-08-21T02:36:13;97483.59;;;17.19;100.00
38912;BME280;28444;48.056;14.408;2022-08-21T02:38:42;97483.59;;;17.19;100.00
38912;BME280;28444;48.056;14.408;2022-08-21T02:41:13;97485.66;;;17.18;100.00
38912;BME280;28444;48.056;14.408;2022-08-21T02:43:40;97484.31;;;17.19;100.00
38912;BME280;28444;48.056;14.408;2022-08-21T02:46:09;97491.59;;;17.26;100.00
38912;BME280;28444;48.056;14.408;2022-08-21T02:48:36;97483.81;;;17.23;100.00
38912;BME280;28444;48.056;14.408;2022-08-21T02:51:07;97486.59;;;17.23;100.00
38912;BME280;28444;48.056;14.408;2022-08-21T02:53:34;97488.84;;;17.26;100.00
38912;BME280;28444;48.056;14.408;2022-08-21T02:56:04;97485.56;;;17.30;100.00
38912;BME280;28444;48.056;14.408;2022-08-21T02:58:34;97491.81;;;17.30;100.00
38912;BME280;28444;48.056;14.408;2022-08-21T03:01:02;97496.22;;;17.36;100.00
38912;BME280;28444;48.056;14.408;2022-08-21T03:03:30;97491.44;;;17.36;100.00
38912;BME280;28444;48.056;14.408;2022-08-21T03:05:57;97491.22;;;17.32;100.00
38912;BME280;28444;48.056;14.408;2022-08-21T03:08:24;97502.38;;;17.34;100.00
38912;BME280;28444;48.056;14.408;2022-08-21T03:10:53;97489.06;;;17.30;100.00
38912;BME280;28444;48.056;14.408;2022-08-21T03:13:20;97501.31;;;17.27;100.00
38912;BME280;28444;48.056;14.408;2022-08-21T03:15:48;97490.78;;;17.24;100.00
38912;BME280;28444;48.056;14.408;2022-08-21T03:18:16;97491.59;;;17.26;100.00
38912;BME280;28444;48.056;14.408;2022-08-21T03:20:43;97493.53;;;17.24;100.00
38912;BME280;28444;48.056;14.408;2022-08-21T03:23:11;97487.91;;;17.22;100.00
38912;BME280;28444;48.056;14.408;2022-08-21T03:25:42;97488.72;;;17.24;100.00
38912;BME280;28444;48.056;14.408;2022-08-21T03:28:11;97492.31;;;17.27;100.00
38912;BME280;28444;48.056;14.408;2022-08-21T03:30:50;97489.56;;;17.27;100.00
38912;BME280;28444;48.056;14.408;2022-08-21T03:33:17;97495.00;;;17.25;100.00
38912;BME280;28444;48.056;14.408;2022-08-21T03:36:00;97488.28;;;17.16;100.00
38912;BME280;28444;48.056;14.408;2022-08-21T03:38:29;97492.91;;;17.12;100.00
38912;BME280;28444;48.056;14.408;2022-08-21T03:40:57;97496.16;;;17.08;100.00
38912;BME280;28444;48.056;14.408;2022-08-21T03:43:24;97502.41;;;17.08;100.00
38912;BME280;28444;48.056;14.408;2022-08-21T03:45:51;97495.75;;;17.14;100.00
38912;BME280;28444;48.056;14.408;2022-08-21T03:48:18;97497.00;;;17.11;100.00
38912;BME280;28444;48.056;14.408;2022-08-21T03:50:45;97495.44;;;17.07;100.00
38912;BME280;28444;48.056;14.408;2022-08-21T03:53:14;97495.53;;;17.09;100.00
38912;BME280;28444;48.056;14.408;2022-08-21T03:55:45;97497.59;;;17.09;100.00
38912;BME280;28444;48.056;14.408;2022-08-21T03:58:14;97503.09;;;17.09;100.00
38912;BME280;28444;48.056;14.408;2022-08-21T04:00:44;97499.75;;;17.11;100.00
38912;BME280;28444;48.056;14.408;2022-08-21T04:03:12;97498.31;;;17.09;100.00
38912;BME280;28444;48.056;14.408;2022-08-21T04:05:39;97495.66;;;17.12;100.00
38912;BME280;28444;48.056;14.408;2022-08-21T04:08:06;97501.91;;;17.12;100.00
38912;BME280;28444;48.056;14.408;2022-08-21T04:10:36;97502.72;;;17.15;100.00
38912;BME280;28444;48.056;14.408;2022-08-21T04:13:04;97504.28;;;17.18;100.00
38912;BME280;28444;48.056;14.408;2022-08-21T04:15:32;97499.47;;;17.18;100.00
38912;BME280;28444;48.056;14.408;2022-08-21T04:17:59;97502.81;;;17.17;100.00
38912;BME280;28444;48.056;14.408;2022-08-21T04:20:26;97509.81;;;17.18;100.00
38912;BME280;28444;48.056;14.408;2022-08-21T04:22:53;97505.50;;;17.15;100.00
38912;BME280;28444;48.056;14.408;2022-08-21T04:25:22;97504.28;;;17.18;100.00
38912;BME280;28444;48.056;14.408;2022-08-21T04:27:49;97509.81;;;17.18;100.00
38912;BME280;28444;48.056;14.408;2022-08-21T04:30:18;97513.56;;;17.11;100.00
38912;BME280;28444;48.056;14.408;2022-08-21T04:32:47;97510.19;;;17.12;100.00
38912;BME280;28444;48.056;14.408;2022-08-21T04:35:18;97512.44;;;17.16;100.00
38912;BME280;28444;48.056;14.408;2022-08-21T04:37:45;97518.59;;;17.14;100.00
38912;BME280;28444;48.056;14.408;2022-08-21T04:40:14;97524.94;;;17.17;100.00
38912;BME280;28444;48.056;14.408;2022-08-21T04:42:54;97520.84;;;17.18;100.00
38912;BME280;28444;48.056;14.408;2022-08-21T04:45:30;97520.22;;;17.19;100.00
38912;BME280;28444;48.056;14.408;2022-08-21T04:47:59;97534.53;;;17.16;100.00
38912;BME280;28444;48.056;14.408;2022-08-21T04:50:34;97537.94;;;17.14;100.00
38912;BME280;28444;48.056;14.408;2022-08-21T04:53:05;97534.31;;;17.12;100.00
38912;BME280;28444;48.056;14.408;2022-08-21T04:55:33;97532.91;;;17.11;100.00
38912;BME280;28444;48.056;14.408;2022-08-21T04:58:01;97537.81;;;17.12;100.00
38912;BME280;28444;48.056;14.408;2022-08-21T05:00:28;97537.31;;;17.16;100.00
38912;BME280;28444;48.056;14.408;2022-08-21T05:02:55;97539.44;;;17.17;100.00
38912;BME280;28444;48.056;14.408;2022-08-21T05:05:28;97539.25;;;17.13;100.00
38912;BME280;28444;48.056;14.408;2022-08-21T05:07:56;97548.25;;;17.14;100.00
38912;BME280;28444;48.056;14.408;2022-08-21T05:10:24;97548.25;;;17.14;100.00
38912;BME280;28444;48.056;14.408;2022-08-21T05:12:52;97538.66;;;17.15;100.00
38912;BME280;28444;48.056;14.408;2022-08-21T05:15:19;97538.44;;;17.11;100.00
38912;BME280;28444;48.056;14.408;2022-08-21T05:17:46;97547.03;;;17.17;100.00
38912;BME280;28444;48.056;14.408;2022-08-21T05:20:27;97542.72;;;17.14;100.00
38912;BME280;28444;48.056;14.408;2022-08-21T05:22:55;97548.47;;;17.18;100.00
38912;BME280;28444;48.056;14.408;2022-08-21T05:25:22;97547.25;;;17.21;100.00
38912;BME280;28444;48.056;14.408;2022-08-21T05:27:49;97546.03;;;17.24;100.00
38912;BME280;28444;48.056;14.408;2022-08-21T05:30:18;97544.81;;;17.27;100.00
38912;BME280;28444;48.056;14.408;2022-08-21T05:32:45;97551.19;;;17.29;100.00
38912;BME280;28444;48.056;14.408;2022-08-21T05:35:12;97552.94;;;17.37;100.00
38912;BME280;28444;48.056;14.408;2022-08-21T05:37:40;97553.53;;;17.35;100.00
38912;BME280;28444;48.056;14.408;2022-08-21T05:40:08;97555.09;;;17.38;100.00
38912;BME280;28444;48.056;14.408;2022-08-21T05:42:52;97552.66;;;17.44;100.00
38912;BME280;28444;48.056;14.408;2022-08-21T05:45:21;97558.19;;;17.44;100.00
38912;BME280;28444;48.056;14.408;2022-08-21T05:48:15;97557.69;;;17.48;100.00
38912;BME280;28444;48.056;14.408;2022-08-21T05:50:43;97560.94;;;17.44;100.00
38912;BME280;28444;48.056;14.408;2022-08-21T05:53:11;97560.94;;;17.44;100.00
38912;BME280;28444;48.056;14.408;2022-08-21T05:55:42;97556.97;;;17.47;100.00
38912;BME280;28444;48.056;14.408;2022-08-21T05:58:17;97562.50;;;17.47;100.00
38912;BME280;28444;48.056;14.408;2022-08-21T06:00:44;97561.66;;;17.45;100.00
38912;BME280;28444;48.056;14.408;2022-08-21T06:03:24;97560.53;;;17.50;100.00
38912;BME280;28444;48.056;14.408;2022-08-21T06:05:51;97558.00;;;17.54;100.00
38912;BME280;28444;48.056;14.408;2022-08-21T06:08:20;97565.63;;;17.42;100.00
38912;BME280;28444;48.056;14.408;2022-08-21T06:10:48;97561.66;;;17.45;100.00
38912;BME280;28444;48.056;14.408;2022-08-21T06:13:16;97560.22;;;17.44;100.00
38912;BME280;28444;48.056;14.408;2022-08-21T06:15:44;97566.81;;;17.50;100.00
38912;BME280;28444;48.056;14.408;2022-08-21T06:18:11;97566.91;;;17.52;100.00
38912;BME280;28444;48.056;14.408;2022-08-21T06:20:40;97570.38;;;17.53;100.00
38912;BME280;28444;48.056;14.408;2022-08-21T06:23:07;97570.16;;;17.49;100.00
38912;BME280;28444;48.056;14.408;2022-08-21T06:25:34;97564.13;;;17.52;100.00
38912;BME280;28444;48.056;14.408;2022-08-21T06:28:04;97572.63;;;17.56;100.00
38912;BME280;28444;48.056;14.408;2022-08-21T06:30:31;97561.78;;;17.61;100.00
38912;BME280;28444;48.056;14.408;2022-08-21T06:32:58;97573.25;;;17.55;100.00
38912;BME280;28444;48.056;14.408;2022-08-21T06:35:26;97574.69;;;17.56;100.00
38912;BME280;28444;48.056;14.408;2022-08-21T06:37:56;97569.16;;;17.56;100.00
38912;BME280;28444;48.056;14.408;2022-08-21T06:40:24;97574.09;;;17.58;100.00
38912;BME280;28444;48.056;14.408;2022-08-21T06:42:51;97570.63;;;17.71;100.00
38912;BME280;28444;48.056;14.408;2022-08-21T06:45:19;97562.06;;;17.78;100.00
38912;BME280;28444;48.056;14.408;2022-08-21T06:47:46;97560.75;;;17.79;100.00
38912;BME280;28444;48.056;14.408;2022-08-21T06:50:12;97560.84;;;17.82;100.00
38912;BME280;28444;48.056;14.408;2022-08-21T06:52:40;97565.28;;;17.87;100.00
38912;BME280;28444;48.056;14.408;2022-08-21T06:55:09;97557.38;;;17.95;100.00
38912;BME280;28444;48.056;14.408;2022-08-21T06:57:35;97568.44;;;17.95;100.00
38912;BME280;28444;48.056;14.408;2022-08-21T07:00:06;97556.66;;;17.94;100.00
38912;BME280;28444;48.056;14.408;2022-08-21T07:02:34;97561.88;;;17.88;100.00
38912;BME280;28444;48.056;14.408;2022-08-21T07:05:06;97564.44;;;17.84;100.00
38912;BME280;28444;48.056;14.408;2022-08-21T07:07:43;97561.66;;;17.84;100.00
38912;BME280;28444;48.056;14.408;2022-08-21T07:10:11;97552.44;;;17.93;100.00
38912;BME280;28444;48.056;14.408;2022-08-21T07:12:49;97555.63;;;17.88;100.00
38912;BME280;28444;48.056;14.408;2022-08-21T07:15:27;97556.66;;;17.80;100.00
38912;BME280;28444;48.056;14.408;2022-08-21T07:17:56;97556.66;;;17.80;100.00
38912;BME280;28444;48.056;14.408;2022-08-21T07:20:23;97566.56;;;17.86;100.00
38912;BME280;28444;48.056;14.408;2022-08-21T07:22:50;97559.50;;;17.83;100.00
38912;BME280;28444;48.056;14.408;2022-08-21T07:25:17;97562.28;;;17.83;100.00
38912;BME280;28444;48.056;14.408;2022-08-21T07:27:44;97560.63;;;17.77;100.00
38912;BME280;28444;48.056;14.408;2022-08-21T07:30:11;97561.25;;;17.76;100.00
38912;BME280;28444;48.056;14.408;2022-08-21T07:32:38;97558.03;;;17.68;100.00
38912;BME280;28444;48.056;14.408;2022-08-21T07:35:05;97562.84;;;17.67;100.00
38912;BME280;28444;48.056;14.408;2022-08-21T07:37:32;97555.03;;;17.64;100.00
38912;BME280;28444;48.056;14.408;2022-08-21T07:39:59;97560.06;;;17.67;100.00
38912;BME280;28444;48.056;14.408;2022-08-21T07:42:26;97556.91;;;17.73;100.00
38912;BME280;28444;48.056;14.408;2022-08-21T07:44:54;97554.16;;;17.73;100.00
38912;BME280;28444;48.056;14.408;2022-08-21T07:47:22;97558.13;;;17.70;100.00
38912;BME280;28444;48.056;14.408;2022-08-21T07:50:09;97556.91;;;17.73;100.00
38912;BME280;28444;48.056;14.408;2022-08-21T07:52:38;97567.66;;;17.67;100.00
38912;BME280;28444;48.056;14.408;2022-08-21T07:55:07;97561.63;;;17.70;100.00
38912;BME280;28444;48.056;14.408;2022-08-21T07:57:34;97560.06;;;17.67;100.00
38912;BME280;28444;48.056;14.408;2022-08-21T08:00:02;97554.53;;;17.67;100.00
38912;BME280;28444;48.056;14.408;2022-08-21T08:02:29;97558.84;;;17.70;100.00
38912;BME280;28444;48.056;14.408;2022-08-21T08:05:07;97555.66;;;17.62;100.00
38912;BME280;28444;48.056;14.408;2022-08-21T08:07:35;97556.66;;;17.55;100.00
38912;BME280;28444;48.056;14.408;2022-08-21T08:10:04;97563.13;;;17.60;100.00
38912;BME280;28444;48.056;14.408;2022-08-21T08:12:31;97555.97;;;17.54;100.00
38912;BME280;28444;48.056;14.408;2022-08-21T08:14:59;97560.78;;;17.54;100.00
38912;BME280;28444;48.056;14.408;2022-08-21T08:17:27;97564.13;;;17.52;100.00
38912;BME280;28444;48.056;14.408;2022-08-21T08:19:54;97557.38;;;17.55;100.00
38912;BME280;28444;48.056;14.408;2022-08-21T08:22:22;97572.63;;;17.56;100.00
38912;BME280;28444;48.056;14.408;2022-08-21T08:24:53;97566.81;;;17.64;100.00
38912;BME280;28444;48.056;14.408;2022-08-21T08:27:20;97559.47;;;17.69;100.00
38912;BME280;28444;48.056;14.408;2022-08-21T08:29:48;97560.28;;;17.71;100.00
38912;BME280;28444;48.056;14.408;2022-08-21T08:32:15;97558.22;;;17.72;100.00
38912;BME280;28444;48.056;14.408;2022-08-21T08:34:42;97559.06;;;17.74;100.00
38912;BME280;28444;48.056;14.408;2022-08-21T08:37:10;97557.97;;;17.79;100.00
38912;BME280;28444;48.056;14.408;2022-08-21T08:39:37;97556.56;;;17.92;100.00
38912;BME280;28444;48.056;14.408;2022-08-21T08:42:08;97554.19;;;18.00;100.00
38912;BME280;28444;48.056;14.408;2022-08-21T08:45:18;97541.50;;;18.09;100.00
38912;BME280;28444;48.056;14.408;2022-08-21T08:47:55;97546.63;;;18.15;100.00
38912;BME280;28444;48.056;14.408;2022-08-21T08:50:39;97543.25;;;18.16;100.00
38912;BME280;28444;48.056;14.408;2022-08-21T08:53:23;97552.88;;;18.15;100.00
38912;BME280;28444;48.056;14.408;2022-08-21T08:55:52;97553.50;;;18.14;100.00
38912;BME280;28444;48.056;14.408;2022-08-21T08:58:32;97551.56;;;18.16;100.00
38912;BME280;28444;48.056;14.408;2022-08-21T09:01:12;97550.72;;;18.14;100.00
38912;BME280;28444;48.056;14.408;2022-08-21T09:03:42;97556.13;;;18.12;100.00
38912;BME280;28444;48.056;14.408;2022-08-21T09:10:36;97547.97;;;18.14;100.00
38912;BME280;28444;48.056;14.408;2022-08-21T09:12:04;97551.56;;;18.16;100.00
38912;BME280;28444;48.056;14.408;2022-08-21T09:18:45;97559.63;;;18.40;100.00
38912;BME280;28444;48.056;14.408;2022-08-21T09:21:16;97565.16;;;18.40;100.00
38912;BME280;28444;48.056;14.408;2022-08-21T09:27:10;97553.38;;;18.25;100.00
38912;BME280;28444;48.056;14.408;2022-08-21T09:29:46;97550.63;;;18.25;100.00
38912;BME280;28444;48.056;14.408;2022-08-21T09:32:20;97555.63;;;18.29;100.00
38912;BME280;28444;48.056;14.408;2022-08-21T09:35:09;97560.97;;;18.25;100.00
38912;BME280;28444;48.056;14.408;2022-08-21T09:38:06;97550.31;;;18.19;100.00
38912;BME280;28444;48.056;14.408;2022-08-21T09:40:43;97552.47;;;18.21;100.00
38912;BME280;28444;48.056;14.408;2022-08-21T09:43:21;97556.84;;;18.26;100.00
38912;BME280;28444;48.056;14.408;2022-08-21T09:45:50;97561.16;;;18.15;100.00
38912;BME280;28444;48.056;14.408;2022-08-21T09:48:27;97554.13;;;18.12;100.00
38912;BME280;28444;48.056;14.408;2022-08-21T09:51:21;97559.44;;;17.94;100.00
38912;BME280;28444;48.056;14.408;2022-08-21T09:57:14;97552.34;;;17.91;100.00
38912;BME280;28444;48.056;14.408;2022-08-21T10:00:27;97557.25;;;17.93;100.00
38912;BME280;28444;48.056;14.408;2022-08-21T10:03:18;97552.97;;;18.03;100.00
38912;BME280;28444;48.056;14.408;2022-08-21T10:06:01;97551.22;;;17.96;100.00
38912;BME280;28444;48.056;14.408;2022-08-21T10:08:36;97556.47;;;17.90;100.00
38912;BME280;28444;48.056;14.408;2022-08-21T10:11:12;97545.50;;;17.92;100.00
38912;BME280;28444;48.056;14.408;2022-08-21T10:17:06;97546.50;;;17.85;100.00
38912;BME280;28444;48.056;14.408;2022-08-21T10:29:09;97547.56;;;18.19;100.00
38912;BME280;28444;48.056;14.408;2022-08-21T10:32:06;97540.69;;;18.20;100.00
38912;BME280;28444;48.056;14.408;2022-08-21T10:35:36;97540.78;;;18.22;100.00
38912;BME280;28444;48.056;14.408;2022-08-21T10:38:57;97551.31;;;18.26;100.00
38912;BME280;28444;48.056;14.408;2022-08-21T10:42:35;97540.06;;;18.22;100.00
38912;BME280;28444;48.056;14.408;2022-08-21T10:46:07;97541.78;;;18.15;100.00
38912;BME280;28444;48.056;14.408;2022-08-21T10:48:42;97544.28;;;18.23;100.00
38912;BME280;28444;48.056;14.408;2022-08-21T10:51:33;97545.19;;;18.14;100.00
38912;BME280;28444;48.056;14.408;2022-08-21T10:57:54;97557.06;;;18.02;100.00
38912;BME280;28444;48.056;14.408;2022-08-21T11:00:36;97561.69;;;17.98;100.00
38912;BME280;28444;48.056;14.408;2022-08-21T11:03:29;97567.72;;;17.94;100.00
38912;BME280;28444;48.056;14.408;2022-08-21T11:06:32;97560.75;;;17.93;100.00
38912;BME280;28444;48.056;14.408;2022-08-21T11:09:14;97567.81;;;17.96;100.00
38912;BME280;28444;48.056;14.408;2022-08-21T11:11:54;97559.53;;;17.96;100.00
38912;BME280;28444;48.056;14.408;2022-08-21T11:17:38;97563.84;;;18.13;100.00
38912;BME280;28444;48.056;14.408;2022-08-21T11:20:50;97566.81;;;18.17;100.00
38912;BME280;28444;48.056;14.408;2022-08-21T11:23:41;97562.91;;;18.22;100.00
38912;BME280;28444;48.056;14.408;2022-08-21T11:29:07;97562.63;;;18.30;100.00
38912;BME280;28444;48.056;14.408;2022-08-21T11:35:34;97558.00;;;18.35;100.00
38912;BME280;28444;48.056;14.408;2022-08-21T11:42:12;97565.88;;;17.99;100.00
38912;BME280;28444;48.056;14.408;2022-08-21T11:45:07;97552.44;;;17.79;100.00
38912;BME280;28444;48.056;14.408;2022-08-21T11:50:27;97554.47;;;17.79;100.00
38912;BME280;28444;48.056;14.408;2022-08-21T11:53:17;97554.59;;;17.81;100.00
38912;BME280;28444;48.056;14.408;2022-08-21T11:56:00;97548.25;;;17.92;100.00
38912;BME280;28444;48.056;14.408;2022-08-21T11:58:41;97545.91;;;18.00;100.00
38912;BME280;28444;48.056;14.408;2022-08-21T12:01:24;97537.53;;;18.12;100.00
38912;BME280;28444;48.056;14.408;2022-08-21T12:03:57;97530.13;;;18.31;100.00
38912;BME280;28444;48.056;14.408;2022-08-21T12:06:33;97524.16;;;18.36;100.00
38912;BME280;28444;48.056;14.408;2022-08-21T12:09:29;97531.28;;;18.55;100.00
38912;BME280;28444;48.056;14.408;2022-08-21T12:12:13;97524.84;;;18.64;100.00
38912;BME280;28444;48.056;14.408;2022-08-21T12:14:45;97529.66;;;18.64;100.00
38912;BME280;28444;48.056;14.408;2022-08-21T12:17:21;97539.09;;;18.72;100.00
38912;BME280;28444;48.056;14.408;2022-08-21T12:20:00;97538.03;;;18.80;99.91
38912;BME280;28444;48.056;14.408;2022-08-21T12:22:40;97535.59;;;18.72;99.21
38912;BME280;28444;48.056;14.408;2022-08-21T12:25:13;97539.50;;;18.67;98.21
38912;BME280;28444;48.056;14.408;2022-08-21T12:27:53;97537.13;;;18.61;99.23
38912;BME280;28444;48.056;14.408;2022-08-21T12:30:40;97547.13;;;18.52;99.72
38912;BME280;28444;48.056;14.408;2022-08-21T12:33:37;97528.47;;;18.39;100.00
38912;BME280;28444;48.056;14.408;2022-08-21T12:36:14;97536.03;;;18.52;99.57
38912;BME280;28444;48.056;14.408;2022-08-21T12:38:54;97529.03;;;18.65;99.34
38912;BME280;28444;48.056;14.408;2022-08-21T12:41:34;97530.88;;;18.74;99.47
38912;BME280;28444;48.056;14.408;2022-08-21T12:44:14;97525.69;;;18.96;98.87
38912;BME280;28444;48.056;14.408;2022-08-21T12:46:51;97534.75;;;19.13;98.17
38912;BME280;28444;48.056;14.408;2022-08-21T12:49:28;97526.88;;;19.07;96.77
38912;BME280;28444;48.056;14.408;2022-08-21T12:52:05;97537.25;;;19.07;96.31
38912;BME280;28444;48.056;14.408;2022-08-21T12:54:41;97540.47;;;19.17;95.93
38912;BME280;28444;48.056;14.408;2022-08-21T12:57:18;97531.63;;;19.20;96.63
38912;BME280;28444;48.056;14.408;2022-08-21T12:59:45;97537.47;;;19.27;95.01
38912;BME280;28444;48.056;14.408;2022-08-21T13:02:17;97538.00;;;19.23;95.12
38912;BME280;28444;48.056;14.408;2022-08-21T13:04:46;97533.50;;;19.16;95.20
38912;BME280;28444;48.056;14.408;2022-08-21T13:07:16;97534.06;;;19.28;96.05
38912;BME280;28444;48.056;14.408;2022-08-21T13:09:57;97529.59;;;19.37;95.74
38912;BME280;28444;48.056;14.408;2022-08-21T13:12:25;97527.91;;;19.30;96.11
38912;BME280;28444;48.056;14.408;2022-08-21T13:15:01;97524.13;;;19.23;96.98
38912;BME280;28444;48.056;14.408;2022-08-21T13:17:38;97523.84;;;19.17;97.40
38912;BME280;28444;48.056;14.408;2022-08-21T13:20:10;97514.22;;;19.18;97.77
38912;BME280;28444;48.056;14.408;2022-08-21T13:22:45;97517.41;;;19.12;98.33
38912;BME280;28444;48.056;14.408;2022-08-21T13:25:14;97522.22;;;19.12;98.30
38912;BME280;28444;48.056;14.408;2022-08-21T13:27:43;97528.06;;;19.18;97.77
38912;BME280;28444;48.056;14.408;2022-08-21T13:30:18;97521.94;;;19.06;97.13
38912;BME280;28444;48.056;14.408;2022-08-21T13:32:49;97521.22;;;19.05;97.18
38912;BME280;28444;48.056;14.408;2022-08-21T13:35:31;97523.56;;;19.11;97.36
38912;BME280;28444;48.056;14.408;2022-08-21T13:38:04;97514.44;;;19.08;97.44
38912;BME280;28444;48.056;14.408;2022-08-21T13:40:41;97513.09;;;19.09;97.23
38912;BME280;28444;48.056;14.408;2022-08-21T13:43:14;97513.72;;;18.92;97.78
38912;BME280;28444;48.056;14.408;2022-08-21T13:45:52;97516.47;;;18.92;99.54
38912;BME280;28444;48.056;14.408;2022-08-21T13:48:20;97517.19;;;18.92;99.15
38912;BME280;28444;48.056;14.408;2022-08-21T13:50:48;97509.47;;;18.91;99.20
38912;BME280;28444;48.056;14.408;2022-08-21T13:56:09;97523.47;;;18.79;99.32
38912;BME280;28444;48.056;14.408;2022-08-21T13:58:44;97515.81;;;18.78;99.77
38912;BME280;28444;48.056;14.408;2022-08-21T14:03:55;97516.94;;;18.59;100.00